createdAt,value
2023-04-19T00:00:01.557Z,0.00
2023-04-19T00:00:31.851Z,0.00
2023-04-19T00:01:03.898Z,0.00
2023-04-19T00:01:35.005Z,0.00
2023-04-19T00:02:07.307Z,0.00
2023-04-19T00:02:24.886Z,0.00
2023-04-19T00:02:42.901Z,0.00
2023-04-19T00:03:12.163Z,0.00
2023-04-19T00:03:34.824Z,0.00
2023-04-19T00:04:00.754Z,0.00
2023-04-19T00:04:31.948Z,0.00
2023-04-19T00:05:04.181Z,0.00
2023-04-19T00:05:34.766Z,0.00
2023-04-19T00:05:52.142Z,0.00
2023-04-19T00:06:24.565Z,0.00
2023-04-19T00:06:41.793Z,0.00
2023-04-19T00:07:11.785Z,0.00
2023-04-19T00:07:34.618Z,0.00
2023-04-19T00:08:00.968Z,0.00
2023-04-19T00:08:31.820Z,0.00
2023-04-19T00:09:04.642Z,0.00
2023-04-19T00:09:34.590Z,0.00
2023-04-19T00:09:51.884Z,0.00
2023-04-19T00:10:24.662Z,0.00
2023-04-19T00:10:41.763Z,0.00
2023-04-19T00:11:11.819Z,0.00
2023-04-19T00:11:34.540Z,0.00
2023-04-19T00:12:00.577Z,0.00
2023-04-19T00:12:31.776Z,0.00
2023-04-19T00:13:03.838Z,0.00
2023-04-19T00:13:34.560Z,0.00
2023-04-19T00:13:51.880Z,0.00
2023-04-19T00:14:24.641Z,0.00
2023-04-19T00:14:41.899Z,0.00
2023-04-19T00:15:12.107Z,0.00
2023-04-19T00:15:34.716Z,0.00
2023-04-19T00:16:00.600Z,0.00
2023-04-19T00:16:31.853Z,0.00
2023-04-19T00:17:03.981Z,0.00
2023-04-19T00:17:34.887Z,0.00
2023-04-19T00:18:07.865Z,0.00
2023-04-19T00:18:34.617Z,0.00
2023-04-19T00:18:55.837Z,0.00
2023-04-19T00:19:28.605Z,0.00
2023-04-19T00:19:59.827Z,0.00
2023-04-19T00:20:31.925Z,0.00
2023-04-19T00:21:03.865Z,0.00
2023-04-19T00:21:34.548Z,0.00
2023-04-19T00:21:52.620Z,0.00
2023-04-19T00:22:23.940Z,0.00
2023-04-19T00:22:40.935Z,0.00
2023-04-19T00:23:12.466Z,0.00
2023-04-19T00:23:34.576Z,0.00
2023-04-19T00:23:59.798Z,0.00
2023-04-19T00:24:32.506Z,0.00
2023-04-19T00:25:04.011Z,0.00
2023-04-19T00:25:35.146Z,0.00
2023-04-19T00:25:52.665Z,0.00
2023-04-19T00:26:23.931Z,0.00
2023-04-19T00:26:40.989Z,0.00
2023-04-19T00:27:12.523Z,0.00
2023-04-19T00:27:34.571Z,0.00
2023-04-19T00:27:59.735Z,0.00
2023-04-19T00:28:32.546Z,0.00
2023-04-19T00:29:03.881Z,0.00
2023-04-19T00:29:35.231Z,0.00
2023-04-19T00:29:51.748Z,0.00
2023-04-19T00:30:24.070Z,0.00
2023-04-19T00:30:40.982Z,0.00
2023-04-19T00:31:12.689Z,0.00
2023-04-19T00:31:34.648Z,0.00
2023-04-19T00:31:59.792Z,0.00
2023-04-19T00:32:32.599Z,0.00
2023-04-19T00:33:03.926Z,0.00
2023-04-19T00:33:34.602Z,0.00
2023-04-19T00:33:52.644Z,0.00
2023-04-19T00:34:23.786Z,0.00
2023-04-19T00:34:40.970Z,0.00
2023-04-19T00:35:12.729Z,0.00
2023-04-19T00:35:34.683Z,0.00
2023-04-19T00:35:59.998Z,0.00
2023-04-19T00:36:32.595Z,0.00
2023-04-19T00:37:03.876Z,0.00
2023-04-19T00:37:35.216Z,0.00
2023-04-19T00:37:51.796Z,0.00
2023-04-19T00:38:23.856Z,0.00
2023-04-19T00:38:41.779Z,0.00
2023-04-19T00:39:11.784Z,0.00
2023-04-19T00:39:34.523Z,0.00
2023-04-19T00:40:00.712Z,0.00
2023-04-19T00:40:31.811Z,0.00
2023-04-19T00:41:03.898Z,0.00
2023-04-19T00:41:34.670Z,0.00
2023-04-19T00:41:51.816Z,0.00
2023-04-19T00:42:24.505Z,0.00
2023-04-19T00:42:41.682Z,0.00
2023-04-19T00:43:11.826Z,0.00
2023-04-19T00:43:34.530Z,0.00
2023-04-19T00:44:00.814Z,0.00
2023-04-19T00:44:31.864Z,0.00
2023-04-19T00:45:04.139Z,0.00
2023-04-19T00:45:34.874Z,0.00
2023-04-19T00:46:07.882Z,0.00
2023-04-19T00:46:34.732Z,0.00
2023-04-19T00:46:55.954Z,0.00
2023-04-19T00:47:28.556Z,0.00
2023-04-19T00:47:59.845Z,0.00
2023-04-19T00:48:31.897Z,0.00
2023-04-19T00:49:03.865Z,0.00
2023-04-19T00:49:34.733Z,0.00
2023-04-19T00:50:08.775Z,0.00
2023-04-19T00:50:34.746Z,0.00
2023-04-19T00:50:56.008Z,0.00
2023-04-19T00:51:28.524Z,0.00
2023-04-19T00:51:59.841Z,0.00
2023-04-19T00:52:31.882Z,0.00
2023-04-19T00:53:03.850Z,0.00
2023-04-19T00:53:34.535Z,0.00
2023-04-19T00:53:52.652Z,0.00
2023-04-19T00:54:23.797Z,0.00
2023-04-19T00:54:41.036Z,0.00
2023-04-19T00:55:11.978Z,0.00
2023-04-19T00:55:34.547Z,0.00
2023-04-19T00:55:59.973Z,0.00
2023-04-19T00:56:31.773Z,0.00
2023-04-19T00:57:03.925Z,0.00
2023-04-19T00:57:34.562Z,0.00
2023-04-19T00:57:51.824Z,0.00
2023-04-19T00:58:24.612Z,0.00
2023-04-19T00:58:41.782Z,0.00
2023-04-19T00:59:11.793Z,0.00
2023-04-19T00:59:34.652Z,0.00
2023-04-19T01:00:01.171Z,0.00
2023-04-19T01:00:31.790Z,0.00
2023-04-19T01:01:03.920Z,0.00
2023-04-19T01:02:08.149Z,0.00
2023-04-19T01:02:34.883Z,0.00
2023-04-19T01:02:55.870Z,0.00
2023-04-19T01:03:28.826Z,0.00
2023-04-19T01:03:59.881Z,0.00
2023-04-19T01:04:34.324Z,0.00
2023-04-19T01:05:04.011Z,0.00
2023-04-19T01:05:34.707Z,0.00
2023-04-19T01:05:52.613Z,0.00
2023-04-19T01:06:23.853Z,0.00
2023-04-19T01:06:40.980Z,0.00
2023-04-19T01:07:12.470Z,0.00
2023-04-19T01:07:34.999Z,0.00
2023-04-19T01:07:59.786Z,0.00
2023-04-19T01:08:31.939Z,0.00
2023-04-19T01:09:03.941Z,0.00
2023-04-19T01:09:34.525Z,0.00
2023-04-19T01:09:51.806Z,0.00
2023-04-19T01:10:24.820Z,0.00
2023-04-19T01:10:41.715Z,0.00
2023-04-19T01:11:11.781Z,0.00
2023-04-19T01:11:34.936Z,0.00
2023-04-19T01:12:00.541Z,0.00
2023-04-19T01:12:31.801Z,0.00
2023-04-19T01:13:03.900Z,0.00
2023-04-19T01:13:34.570Z,0.00
2023-04-19T01:13:51.803Z,0.00
2023-04-19T01:14:32.974Z,0.00
2023-04-19T01:14:55.790Z,0.00
2023-04-19T01:15:29.015Z,0.00
2023-04-19T01:15:59.773Z,0.00
2023-04-19T01:16:31.893Z,0.00
2023-04-19T01:17:03.814Z,0.00
2023-04-19T01:17:34.611Z,0.00
2023-04-19T01:17:56.528Z,0.00
2023-04-19T01:18:23.803Z,0.00
2023-04-19T01:18:41.024Z,0.00
2023-04-19T01:19:11.805Z,0.00
2023-04-19T01:19:34.507Z,0.00
2023-04-19T01:20:01.043Z,0.00
2023-04-19T01:20:32.685Z,0.00
2023-04-19T01:21:03.927Z,0.00
2023-04-19T01:21:34.732Z,0.00
2023-04-19T01:21:52.406Z,0.00
2023-04-19T01:22:23.915Z,0.00
2023-04-19T01:22:41.117Z,0.00
2023-04-19T01:23:12.454Z,0.00
2023-04-19T01:23:34.518Z,0.00
2023-04-19T01:23:59.795Z,0.00
2023-04-19T01:24:33.154Z,0.00
2023-04-19T01:25:04.028Z,0.00
2023-04-19T01:25:34.635Z,0.00
2023-04-19T01:25:53.162Z,0.00
2023-04-19T01:26:23.813Z,0.00
2023-04-19T01:26:41.066Z,0.00
2023-04-19T01:27:12.473Z,0.00
2023-04-19T01:27:34.581Z,0.00
2023-04-19T01:27:59.801Z,0.00
2023-04-19T01:28:32.644Z,0.00
2023-04-19T01:29:03.872Z,0.00
2023-04-19T01:29:35.017Z,0.00
2023-04-19T01:30:08.835Z,0.00
2023-04-19T01:30:34.624Z,0.00
2023-04-19T01:30:56.025Z,0.00
2023-04-19T01:31:28.613Z,0.00
2023-04-19T01:31:59.757Z,0.00
2023-04-19T01:32:31.837Z,0.00
2023-04-19T01:33:03.978Z,0.00
2023-04-19T01:33:34.780Z,0.00
2023-04-19T01:34:09.650Z,0.00
2023-04-19T01:34:35.522Z,0.00
2023-04-19T01:34:55.789Z,0.00
2023-04-19T01:35:29.741Z,0.00
2023-04-19T01:35:59.827Z,0.00
2023-04-19T01:36:32.712Z,0.00
2023-04-19T01:37:03.905Z,0.00
2023-04-19T01:37:34.650Z,0.00
2023-04-19T01:37:52.452Z,0.00
2023-04-19T01:38:23.879Z,0.00
2023-04-19T01:38:41.034Z,0.00
2023-04-19T01:39:12.587Z,0.00
2023-04-19T01:39:34.572Z,0.00
2023-04-19T01:39:59.813Z,0.00
2023-04-19T01:40:32.809Z,0.00
2023-04-19T01:41:03.794Z,0.00
2023-04-19T01:41:34.574Z,0.00
2023-04-19T01:41:52.697Z,0.00
2023-04-19T01:42:23.814Z,0.00
2023-04-19T01:42:41.091Z,0.00
2023-04-19T01:43:12.579Z,0.00
2023-04-19T01:43:34.509Z,0.00
2023-04-19T01:44:00.099Z,0.00
2023-04-19T01:44:32.530Z,0.00
2023-04-19T01:45:21.249Z,0.00
2023-04-19T01:45:52.768Z,0.00
2023-04-19T01:46:23.875Z,0.00
2023-04-19T01:46:41.121Z,0.00
2023-04-19T01:47:12.582Z,0.00
2023-04-19T01:47:34.707Z,0.00
2023-04-19T01:47:59.806Z,0.00
2023-04-19T01:48:32.068Z,0.00
2023-04-19T01:49:03.802Z,0.00
2023-04-19T01:49:34.512Z,0.00
2023-04-19T01:49:51.805Z,0.00
2023-04-19T01:50:24.769Z,0.00
2023-04-19T01:50:41.743Z,0.00
2023-04-19T01:51:11.822Z,0.00
2023-04-19T01:51:35.020Z,0.00
2023-04-19T01:51:59.802Z,0.00
2023-04-19T01:52:32.606Z,0.00
2023-04-19T01:53:03.807Z,0.00
2023-04-19T01:53:34.534Z,0.00
2023-04-19T01:53:52.495Z,0.00
2023-04-19T01:54:23.814Z,0.00
2023-04-19T01:54:41.072Z,0.00
2023-04-19T01:55:12.762Z,0.00
2023-04-19T01:55:34.510Z,0.00
2023-04-19T01:55:59.921Z,0.00
2023-04-19T01:56:32.728Z,0.00
2023-04-19T01:57:03.854Z,0.00
2023-04-19T01:57:34.668Z,0.00
2023-04-19T01:57:54.483Z,0.00
2023-04-19T01:58:23.756Z,0.00
2023-04-19T01:58:41.025Z,0.00
2023-04-19T01:59:12.446Z,0.00
2023-04-19T01:59:34.545Z,0.00
2023-04-19T01:59:59.790Z,0.00
2023-04-19T02:00:33.121Z,0.00
2023-04-19T02:01:03.926Z,0.00
2023-04-19T02:01:34.514Z,0.00
2023-04-19T02:01:52.673Z,0.00
2023-04-19T02:02:23.982Z,0.00
2023-04-19T02:02:41.122Z,0.00
2023-04-19T02:03:12.673Z,0.00
2023-04-19T02:03:35.456Z,0.00
2023-04-19T02:03:59.992Z,0.00
2023-04-19T02:04:32.625Z,0.00
2023-04-19T02:05:04.055Z,0.00
2023-04-19T02:05:36.320Z,0.00
2023-04-19T02:06:07.779Z,0.00
2023-04-19T02:06:34.741Z,0.00
2023-04-19T02:06:56.619Z,0.00
2023-04-19T02:07:27.778Z,0.00
2023-04-19T02:08:00.595Z,0.00
2023-04-19T02:08:31.848Z,0.00
2023-04-19T02:09:03.836Z,0.00
2023-04-19T02:09:35.110Z,0.00
2023-04-19T02:10:07.568Z,0.00
2023-04-19T02:10:24.639Z,0.00
2023-04-19T02:10:41.924Z,0.00
2023-04-19T02:11:11.758Z,0.00
2023-04-19T02:11:35.240Z,0.00
2023-04-19T02:12:00.519Z,0.00
2023-04-19T02:12:31.776Z,0.00
2023-04-19T02:13:03.848Z,0.00
2023-04-19T02:13:35.218Z,0.00
2023-04-19T02:13:51.655Z,0.00
2023-04-19T02:14:35.367Z,0.00
2023-04-19T02:14:55.942Z,0.00
2023-04-19T02:15:28.091Z,0.00
2023-04-19T02:16:00.669Z,0.00
2023-04-19T02:16:33.222Z,0.00
2023-04-19T02:17:03.809Z,0.00
2023-04-19T02:17:34.718Z,0.00
2023-04-19T02:17:51.950Z,0.00
2023-04-19T02:18:26.884Z,0.00
2023-04-19T02:18:55.813Z,0.00
2023-04-19T02:19:27.794Z,0.00
2023-04-19T02:20:16.883Z,0.00
2023-04-19T02:20:35.166Z,0.00
2023-04-19T02:21:03.890Z,0.00
2023-04-19T02:21:36.841Z,0.00
2023-04-19T02:22:08.001Z,0.00
2023-04-19T02:22:35.188Z,0.00
2023-04-19T02:22:55.888Z,0.00
2023-04-19T02:23:27.901Z,0.00
2023-04-19T02:24:00.568Z,0.00
2023-04-19T02:24:31.793Z,0.00
2023-04-19T02:25:04.112Z,0.00
2023-04-19T02:25:35.037Z,0.00
2023-04-19T02:25:52.010Z,0.00
2023-04-19T02:26:25.558Z,0.00
2023-04-19T02:26:42.699Z,0.00
2023-04-19T02:27:11.742Z,0.00
2023-04-19T02:27:34.962Z,0.00
2023-04-19T02:27:59.752Z,0.00
2023-04-19T02:28:31.864Z,0.00
2023-04-19T02:29:06.743Z,0.00
2023-04-19T02:29:34.542Z,0.00
2023-04-19T02:29:51.821Z,0.00
2023-04-19T02:30:25.303Z,0.00
2023-04-19T02:30:44.779Z,0.00
2023-04-19T02:31:11.801Z,0.00
2023-04-19T02:31:35.564Z,0.00
2023-04-19T02:32:00.958Z,0.00
2023-04-19T02:32:32.666Z,0.00
2023-04-19T02:33:04.608Z,0.00
2023-04-19T02:33:35.044Z,0.00
2023-04-19T02:33:51.542Z,0.00
2023-04-19T02:34:24.498Z,0.00
2023-04-19T02:34:41.730Z,0.00
2023-04-19T02:35:11.918Z,0.00
2023-04-19T02:35:34.607Z,0.00
2023-04-19T02:36:00.516Z,0.00
2023-04-19T02:36:37.464Z,0.00
2023-04-19T02:37:04.368Z,0.00
2023-04-19T02:37:34.546Z,0.00
2023-04-19T02:37:51.791Z,0.00
2023-04-19T02:38:23.819Z,0.00
2023-04-19T02:38:40.927Z,0.00
2023-04-19T02:39:12.542Z,0.00
2023-04-19T02:39:34.750Z,0.00
2023-04-19T02:39:59.732Z,0.00
2023-04-19T02:40:33.531Z,0.00
2023-04-19T02:41:03.831Z,0.00
2023-04-19T02:41:34.717Z,0.00
2023-04-19T02:41:52.478Z,0.00
2023-04-19T02:42:23.838Z,0.00
2023-04-19T02:42:40.990Z,0.00
2023-04-19T02:43:12.521Z,0.00
2023-04-19T02:43:34.544Z,0.00
2023-04-19T02:43:59.772Z,0.00
2023-04-19T02:44:32.680Z,0.00
2023-04-19T02:45:04.929Z,0.00
2023-04-19T02:45:34.956Z,0.00
2023-04-19T02:45:52.809Z,0.00
2023-04-19T02:46:23.830Z,0.00
2023-04-19T02:46:40.928Z,0.00
2023-04-19T02:47:11.788Z,0.00
2023-04-19T02:47:34.585Z,0.00
2023-04-19T02:48:01.021Z,0.00
2023-04-19T02:48:31.834Z,0.00
2023-04-19T02:49:03.928Z,0.00
2023-04-19T02:49:34.594Z,0.00
2023-04-19T02:49:51.727Z,0.00
2023-04-19T02:50:24.776Z,0.00
2023-04-19T02:50:41.820Z,0.00
2023-04-19T02:51:11.831Z,0.00
2023-04-19T02:51:34.639Z,0.00
2023-04-19T02:52:00.561Z,0.00
2023-04-19T02:52:31.832Z,0.00
2023-04-19T02:53:04.612Z,0.00
2023-04-19T02:53:34.746Z,0.00
2023-04-19T02:53:51.874Z,0.00
2023-04-19T02:54:24.538Z,0.00
2023-04-19T02:54:41.754Z,0.00
2023-04-19T02:55:11.951Z,0.00
2023-04-19T02:55:34.609Z,0.00
2023-04-19T02:56:00.560Z,0.00
2023-04-19T02:56:31.801Z,0.00
2023-04-19T02:57:03.857Z,0.00
2023-04-19T02:57:35.067Z,0.00
2023-04-19T02:57:51.660Z,0.00
2023-04-19T02:58:24.488Z,0.00
2023-04-19T02:58:41.663Z,0.00
2023-04-19T02:59:11.759Z,0.00
2023-04-19T02:59:35.164Z,0.00
2023-04-19T03:00:01.129Z,0.00
2023-04-19T03:00:31.835Z,0.00
2023-04-19T03:01:03.952Z,0.00
2023-04-19T03:01:34.582Z,0.00
2023-04-19T03:01:51.831Z,0.00
2023-04-19T03:02:24.634Z,0.00
2023-04-19T03:02:42.019Z,0.00
2023-04-19T03:03:12.027Z,0.00
2023-04-19T03:03:34.685Z,0.00
2023-04-19T03:04:00.734Z,0.00
2023-04-19T03:04:31.914Z,0.00
2023-04-19T03:05:04.222Z,0.00
2023-04-19T03:05:34.549Z,0.00
2023-04-19T03:05:51.917Z,0.00
2023-04-19T03:06:24.616Z,0.00
2023-04-19T03:06:41.811Z,0.00
2023-04-19T03:07:11.839Z,0.00
2023-04-19T03:07:34.586Z,0.00
2023-04-19T03:08:00.521Z,0.00
2023-04-19T03:08:31.768Z,0.00
2023-04-19T03:09:03.892Z,0.00
2023-04-19T03:09:34.594Z,0.00
2023-04-19T03:09:51.834Z,0.00
2023-04-19T03:10:24.798Z,0.00
2023-04-19T03:10:41.808Z,0.00
2023-04-19T03:11:11.802Z,0.00
2023-04-19T03:11:34.521Z,0.00
2023-04-19T03:12:00.524Z,0.00
2023-04-19T03:12:31.799Z,0.00
2023-04-19T03:13:03.869Z,0.00
2023-04-19T03:13:34.590Z,0.00
2023-04-19T03:13:51.741Z,0.00
2023-04-19T03:14:24.564Z,0.00
2023-04-19T03:14:41.726Z,0.00
2023-04-19T03:15:12.050Z,0.00
2023-04-19T03:15:34.777Z,0.00
2023-04-19T03:16:00.579Z,0.00
2023-04-19T03:16:31.820Z,0.00
2023-04-19T03:17:04.462Z,0.00
2023-04-19T03:17:34.698Z,0.00
2023-04-19T03:17:52.030Z,0.00
2023-04-19T03:18:24.521Z,0.00
2023-04-19T03:18:41.882Z,0.00
2023-04-19T03:19:11.766Z,0.00
2023-04-19T03:19:34.550Z,0.00
2023-04-19T03:20:00.719Z,0.00
2023-04-19T03:20:31.810Z,0.00
2023-04-19T03:21:04.632Z,0.00
2023-04-19T03:21:34.582Z,0.00
2023-04-19T03:21:51.789Z,0.00
2023-04-19T03:22:24.510Z,0.00
2023-04-19T03:22:42.969Z,0.00
2023-04-19T03:23:11.760Z,0.00
2023-04-19T03:23:34.791Z,0.00
2023-04-19T03:23:59.745Z,0.00
2023-04-19T03:24:31.769Z,0.00
2023-04-19T03:25:04.735Z,0.00
2023-04-19T03:25:34.596Z,0.00
2023-04-19T03:25:51.920Z,0.00
2023-04-19T03:26:24.652Z,0.00
2023-04-19T03:26:41.772Z,0.00
2023-04-19T03:27:11.764Z,0.00
2023-04-19T03:27:34.526Z,0.00
2023-04-19T03:28:00.457Z,0.00
2023-04-19T03:28:32.056Z,0.00
2023-04-19T03:29:03.937Z,0.00
2023-04-19T03:29:34.569Z,0.00
2023-04-19T03:29:51.771Z,0.00
2023-04-19T03:30:24.937Z,0.00
2023-04-19T03:30:41.792Z,0.00
2023-04-19T03:31:11.791Z,0.00
2023-04-19T03:31:34.694Z,0.00
2023-04-19T03:32:00.533Z,0.00
2023-04-19T03:32:31.762Z,0.00
2023-04-19T03:33:03.915Z,0.00
2023-04-19T03:33:34.561Z,0.00
2023-04-19T03:33:51.804Z,0.00
2023-04-19T03:34:24.602Z,0.00
2023-04-19T03:34:41.737Z,0.00
2023-04-19T03:35:11.959Z,0.00
2023-04-19T03:35:34.574Z,0.00
2023-04-19T03:36:01.357Z,0.00
2023-04-19T03:36:31.770Z,0.00
2023-04-19T03:37:03.839Z,0.00
2023-04-19T03:37:34.558Z,0.00
2023-04-19T03:37:51.725Z,0.00
2023-04-19T03:38:24.596Z,0.00
2023-04-19T03:38:41.762Z,0.00
2023-04-19T03:39:11.818Z,0.00
2023-04-19T03:39:34.692Z,0.00
2023-04-19T03:39:59.774Z,0.00
2023-04-19T03:40:32.771Z,0.00
2023-04-19T03:41:03.863Z,0.00
2023-04-19T03:41:34.565Z,0.00
2023-04-19T03:41:52.477Z,0.00
2023-04-19T03:42:23.759Z,0.00
2023-04-19T03:42:41.024Z,0.00
2023-04-19T03:43:12.499Z,0.00
2023-04-19T03:43:34.602Z,0.00
2023-04-19T03:43:59.734Z,0.00
2023-04-19T03:44:32.675Z,0.00
2023-04-19T03:45:04.222Z,0.00
2023-04-19T03:45:34.577Z,0.00
2023-04-19T03:46:08.653Z,0.00
2023-04-19T03:46:34.679Z,0.00
2023-04-19T03:46:56.085Z,0.00
2023-04-19T03:47:28.494Z,0.00
2023-04-19T03:48:02.636Z,0.00
2023-04-19T03:48:31.843Z,0.00
2023-04-19T03:49:03.870Z,0.00
2023-04-19T03:49:34.660Z,0.00
2023-04-19T03:49:52.601Z,0.00
2023-04-19T03:50:23.895Z,0.00
2023-04-19T03:50:40.993Z,0.00
2023-04-19T03:51:12.518Z,0.00
2023-04-19T03:51:34.571Z,0.00
2023-04-19T03:51:59.797Z,0.00
2023-04-19T03:52:32.658Z,0.00
2023-04-19T03:53:03.840Z,0.00
2023-04-19T03:53:35.151Z,0.00
2023-04-19T03:53:52.420Z,0.00
2023-04-19T03:54:23.730Z,0.00
2023-04-19T03:54:40.942Z,0.00
2023-04-19T03:55:12.754Z,0.00
2023-04-19T03:55:34.622Z,0.00
2023-04-19T03:55:59.954Z,0.00
2023-04-19T03:56:32.476Z,0.00
2023-04-19T03:57:03.815Z,0.00
2023-04-19T03:57:35.252Z,0.00
2023-04-19T03:57:52.465Z,0.00
2023-04-19T03:58:23.808Z,0.00
2023-04-19T03:58:42.682Z,0.00
2023-04-19T03:59:12.462Z,0.00
2023-04-19T03:59:35.513Z,0.00
2023-04-19T03:59:59.798Z,0.00
2023-04-19T04:00:32.934Z,0.00
2023-04-19T04:01:03.834Z,0.00
2023-04-19T04:01:36.326Z,0.00
2023-04-19T04:01:51.787Z,0.00
2023-04-19T04:02:23.834Z,0.00
2023-04-19T04:02:41.026Z,0.00
2023-04-19T04:03:12.729Z,0.00
2023-04-19T04:03:34.886Z,0.00
2023-04-19T04:04:01.657Z,0.00
2023-04-19T04:04:33.028Z,0.00
2023-04-19T04:05:04.279Z,0.00
2023-04-19T04:05:35.218Z,0.00
2023-04-19T04:05:52.410Z,0.00
2023-04-19T04:06:23.739Z,0.00
2023-04-19T04:06:40.963Z,0.00
2023-04-19T04:07:12.404Z,0.00
2023-04-19T04:07:34.673Z,0.00
2023-04-19T04:07:59.803Z,0.00
2023-04-19T04:08:32.587Z,0.00
2023-04-19T04:09:03.805Z,0.00
2023-04-19T04:09:34.584Z,0.00
2023-04-19T04:09:52.521Z,0.00
2023-04-19T04:10:24.038Z,0.00
2023-04-19T04:10:40.939Z,0.00
2023-04-19T04:11:12.586Z,0.00
2023-04-19T04:11:34.595Z,0.00
2023-04-19T04:11:59.741Z,0.00
2023-04-19T04:12:32.692Z,0.00
2023-04-19T04:13:03.903Z,0.00
2023-04-19T04:13:34.565Z,0.00
2023-04-19T04:13:52.471Z,0.00
2023-04-19T04:14:23.759Z,0.00
2023-04-19T04:14:41.033Z,0.00
2023-04-19T04:15:12.763Z,0.00
2023-04-19T04:15:35.092Z,0.00
2023-04-19T04:15:59.919Z,0.00
2023-04-19T04:16:32.619Z,0.00
2023-04-19T04:17:03.756Z,0.00
2023-04-19T04:17:36.075Z,0.00
2023-04-19T04:18:09.114Z,0.00
2023-04-19T04:18:34.687Z,0.00
2023-04-19T04:18:55.703Z,0.00
2023-04-19T04:19:27.713Z,0.00
2023-04-19T04:20:00.616Z,0.00
2023-04-19T04:20:31.773Z,0.00
2023-04-19T04:21:04.635Z,0.00
2023-04-19T04:21:34.869Z,0.00
2023-04-19T04:22:07.907Z,0.00
2023-04-19T04:22:35.642Z,0.00
2023-04-19T04:22:55.801Z,0.00
2023-04-19T04:23:27.696Z,0.00
2023-04-19T04:24:00.595Z,0.00
2023-04-19T04:24:31.862Z,0.00
2023-04-19T04:25:04.088Z,0.00
2023-04-19T04:25:34.578Z,0.00
2023-04-19T04:25:51.954Z,0.00
2023-04-19T04:26:24.721Z,0.00
2023-04-19T04:26:42.732Z,0.00
2023-04-19T04:27:11.793Z,0.00
2023-04-19T04:27:50.228Z,0.00
2023-04-19T04:28:15.795Z,0.00
2023-04-19T04:28:34.817Z,0.00
2023-04-19T04:29:03.777Z,0.00
2023-04-19T04:29:35.408Z,0.00
2023-04-19T04:29:51.731Z,0.00
2023-04-19T04:30:27.751Z,0.00
2023-04-19T04:30:41.732Z,0.00
2023-04-19T04:31:11.711Z,0.00
2023-04-19T04:31:34.936Z,0.00
2023-04-19T04:31:59.819Z,0.00
2023-04-19T04:32:32.580Z,0.36
2023-04-19T04:33:03.944Z,0.00
2023-04-19T04:33:34.648Z,0.00
2023-04-19T04:33:52.558Z,0.36
2023-04-19T04:34:23.759Z,0.00
2023-04-19T04:34:40.976Z,0.00
2023-04-19T04:35:12.688Z,0.00
2023-04-19T04:35:34.675Z,0.00
2023-04-19T04:35:59.894Z,0.36
2023-04-19T04:36:32.689Z,0.00
2023-04-19T04:37:03.779Z,0.00
2023-04-19T04:37:36.420Z,0.00
2023-04-19T04:38:17.612Z,0.00
2023-04-19T04:38:34.748Z,0.00
2023-04-19T04:38:56.823Z,0.00
2023-04-19T04:39:34.640Z,0.00
2023-04-19T04:40:00.763Z,0.00
2023-04-19T04:40:32.186Z,0.00
2023-04-19T04:41:03.817Z,0.00
2023-04-19T04:41:34.605Z,0.00
2023-04-19T04:41:51.737Z,0.00
2023-04-19T04:42:24.550Z,0.00
2023-04-19T04:42:41.859Z,0.00
2023-04-19T04:43:11.808Z,0.00
2023-04-19T04:43:34.673Z,0.00
2023-04-19T04:44:12.204Z,0.00
2023-04-19T04:44:31.817Z,0.00
2023-04-19T04:45:04.043Z,0.00
2023-04-19T04:45:34.738Z,0.36
2023-04-19T04:45:52.143Z,0.85
2023-04-19T04:46:24.716Z,0.36
2023-04-19T04:46:41.918Z,0.85
2023-04-19T04:47:11.967Z,0.85
2023-04-19T04:47:34.836Z,0.36
2023-04-19T04:48:01.038Z,0.85
2023-04-19T04:48:32.056Z,0.36
2023-04-19T04:49:03.828Z,0.85
2023-04-19T04:49:34.839Z,0.85
2023-04-19T04:49:51.802Z,0.00
2023-04-19T04:50:24.998Z,0.85
2023-04-19T04:50:41.705Z,0.00
2023-04-19T04:51:11.967Z,0.85
2023-04-19T04:51:34.673Z,0.36
2023-04-19T04:52:00.653Z,0.36
2023-04-19T04:52:31.952Z,0.85
2023-04-19T04:53:03.972Z,1.22
2023-04-19T04:53:34.774Z,0.85
2023-04-19T04:53:52.030Z,1.71
2023-04-19T04:54:24.644Z,2.08
2023-04-19T04:54:41.782Z,1.71
2023-04-19T04:55:12.026Z,1.71
2023-04-19T04:55:34.844Z,1.22
2023-04-19T04:56:00.722Z,1.71
2023-04-19T04:56:32.013Z,1.71
2023-04-19T04:57:04.097Z,1.22
2023-04-19T04:57:34.802Z,1.71
2023-04-19T04:57:51.984Z,2.08
2023-04-19T04:58:24.679Z,2.57
2023-04-19T04:58:41.876Z,2.94
2023-04-19T04:59:11.984Z,2.08
2023-04-19T04:59:34.792Z,2.94
2023-04-19T05:00:01.276Z,2.94
2023-04-19T05:00:31.936Z,2.94
2023-04-19T05:01:03.959Z,3.79
2023-04-19T05:01:34.864Z,4.28
2023-04-19T05:01:51.976Z,4.28
2023-04-19T05:02:24.904Z,4.77
2023-04-19T05:02:41.980Z,5.14
2023-04-19T05:03:12.117Z,4.77
2023-04-19T05:03:35.173Z,5.14
2023-04-19T05:04:00.681Z,4.77
2023-04-19T05:04:32.074Z,5.14
2023-04-19T05:05:04.450Z,4.77
2023-04-19T05:05:34.771Z,5.14
2023-04-19T05:05:52.098Z,5.63
2023-04-19T05:06:24.681Z,6.48
2023-04-19T05:06:41.848Z,6.85
2023-04-19T05:07:11.906Z,7.34
2023-04-19T05:07:34.806Z,7.70
2023-04-19T05:07:59.929Z,7.70
2023-04-19T05:08:32.836Z,8.19
2023-04-19T05:09:03.900Z,8.56
2023-04-19T05:09:34.939Z,9.05
2023-04-19T05:09:52.882Z,9.54
2023-04-19T05:10:24.114Z,10.77
2023-04-19T05:10:41.056Z,11.62
2023-04-19T05:11:11.966Z,12.11
2023-04-19T05:11:34.778Z,12.11
2023-04-19T05:12:01.551Z,12.11
2023-04-19T05:12:31.963Z,12.48
2023-04-19T05:13:03.882Z,11.62
2023-04-19T05:13:34.742Z,12.97
2023-04-19T05:13:51.937Z,13.33
2023-04-19T05:14:24.642Z,14.68
2023-04-19T05:14:42.435Z,14.68
2023-04-19T05:15:12.184Z,15.53
2023-04-19T05:15:34.941Z,16.02
2023-04-19T05:16:00.176Z,16.39
2023-04-19T05:16:31.962Z,16.88
2023-04-19T05:17:06.573Z,16.39
2023-04-19T05:17:35.042Z,16.88
2023-04-19T05:17:51.897Z,16.39
2023-04-19T05:18:24.814Z,16.02
2023-04-19T05:18:42.308Z,16.02
2023-04-19T05:19:11.939Z,16.39
2023-04-19T05:19:34.802Z,16.39
2023-04-19T05:19:59.850Z,15.17
2023-04-19T05:20:32.130Z,16.39
2023-04-19T05:21:04.824Z,16.02
2023-04-19T05:21:34.863Z,16.88
2023-04-19T05:21:52.007Z,16.88
2023-04-19T05:22:24.642Z,17.73
2023-04-19T05:22:42.550Z,18.60
2023-04-19T05:23:11.870Z,18.60
2023-04-19T05:23:34.768Z,18.60
2023-04-19T05:23:59.918Z,19.45
2023-04-19T05:24:32.049Z,19.45
2023-04-19T05:25:05.736Z,19.94
2023-04-19T05:25:34.865Z,19.45
2023-04-19T05:25:52.221Z,19.08
2023-04-19T05:26:24.694Z,18.60
2023-04-19T05:26:42.566Z,18.60
2023-04-19T05:27:11.938Z,18.60
2023-04-19T05:27:34.832Z,18.11
2023-04-19T05:27:59.857Z,18.11
2023-04-19T05:28:31.941Z,19.08
2023-04-19T05:29:04.723Z,19.45
2023-04-19T05:29:34.827Z,19.94
2023-04-19T05:29:51.905Z,20.80
2023-04-19T05:30:24.877Z,20.80
2023-04-19T05:30:42.527Z,21.65
2023-04-19T05:31:11.990Z,22.51
2023-04-19T05:31:34.803Z,23.36
2023-04-19T05:31:59.876Z,23.36
2023-04-19T05:32:31.947Z,22.87
2023-04-19T05:33:04.747Z,22.87
2023-04-19T05:33:35.214Z,22.87
2023-04-19T05:33:51.717Z,21.16
2023-04-19T05:34:23.981Z,21.65
2023-04-19T05:34:41.154Z,21.65
2023-04-19T05:35:12.788Z,20.80
2023-04-19T05:35:35.077Z,20.80
2023-04-19T05:36:00.069Z,21.16
2023-04-19T05:36:32.881Z,20.80
2023-04-19T05:37:03.952Z,20.31
2023-04-19T05:37:35.066Z,20.31
2023-04-19T05:37:52.598Z,20.80
2023-04-19T05:38:23.951Z,21.16
2023-04-19T05:38:41.028Z,21.65
2023-04-19T05:39:11.872Z,23.36
2023-04-19T05:39:34.951Z,24.22
2023-04-19T05:40:01.177Z,25.56
2023-04-19T05:40:31.952Z,26.42
2023-04-19T05:41:03.822Z,28.14
2023-04-19T05:41:34.869Z,28.63
2023-04-19T05:41:51.869Z,29.85
2023-04-19T05:42:24.781Z,31.19
2023-04-19T05:42:42.498Z,32.05
2023-04-19T05:43:11.941Z,34.62
2023-04-19T05:43:34.976Z,35.48
2023-04-19T05:43:59.867Z,35.48
2023-04-19T05:44:32.855Z,37.68
2023-04-19T05:45:05.986Z,37.68
2023-04-19T05:45:35.207Z,38.53
2023-04-19T05:46:08.728Z,37.68
2023-04-19T05:46:35.062Z,37.68
2023-04-19T05:46:55.881Z,38.53
2023-04-19T05:47:28.699Z,38.53
2023-04-19T05:47:59.848Z,38.53
2023-04-19T05:48:32.079Z,39.02
2023-04-19T05:49:04.007Z,38.53
2023-04-19T05:49:34.852Z,38.53
2023-04-19T05:49:52.607Z,39.02
2023-04-19T05:50:24.219Z,39.02
2023-04-19T05:50:41.398Z,39.39
2023-04-19T05:51:12.626Z,38.53
2023-04-19T05:51:34.769Z,38.53
2023-04-19T05:51:59.943Z,37.68
2023-04-19T05:52:32.777Z,38.53
2023-04-19T05:53:03.844Z,38.17
2023-04-19T05:53:34.909Z,38.17
2023-04-19T05:53:53.824Z,37.68
2023-04-19T05:54:24.131Z,38.53
2023-04-19T05:54:41.125Z,38.53
2023-04-19T05:55:12.866Z,37.19
2023-04-19T05:55:35.318Z,39.02
2023-04-19T05:56:00.074Z,39.39
2023-04-19T05:56:32.852Z,40.24
2023-04-19T05:57:03.908Z,40.24
2023-04-19T05:57:34.762Z,41.10
2023-04-19T05:57:53.071Z,42.94
2023-04-19T05:58:23.904Z,43.31
2023-04-19T05:58:41.167Z,43.80
2023-04-19T05:59:12.586Z,43.31
2023-04-19T05:59:34.726Z,43.80
2023-04-19T06:00:33.030Z,44.16
2023-04-19T06:01:04.421Z,43.80
2023-04-19T06:01:35.786Z,43.80